sensor_id;sensor_type;location;lat;lon;timestamp;temperature;humidity
7566;DHT22;3824;48.010;7.832;2023-02-11T00:00:38;1.60;99.90
7566;DHT22;3824;48.010;7.832;2023-02-11T00:03:06;-0.30;99.90
7566;DHT22;3824;48.010;7.832;2023-02-11T00:05:33;-0.30;99.90
7566;DHT22;3824;48.010;7.832;2023-02-11T00:07:59;-0.30;99.90
7566;DHT22;3824;48.010;7.832;2023-02-11T00:10:26;-0.20;99.90
7566;DHT22;3824;48.010;7.832;2023-02-11T00:12:55;-0.20;99.90
7566;DHT22;3824;48.010;7.832;2023-02-11T00:15:22;1.00;99.90
7566;DHT22;3824;48.010;7.832;2023-02-11T00:17:48;-0.20;99.90
7566;DHT22;3824;48.010;7.832;2023-02-11T00:20:15;-0.20;99.90
7566;DHT22;3824;48.010;7.832;2023-02-11T00:22:42;-0.40;99.90
7566;DHT22;3824;48.010;7.832;2023-02-11T00:25:09;-0.50;99.90
7566;DHT22;3824;48.010;7.832;2023-02-11T00:27:36;-0.10;99.90
7566;DHT22;3824;48.010;7.832;2023-02-11T00:30:05;-0.70;99.90
7566;DHT22;3824;48.010;7.832;2023-02-11T00:32:32;-0.80;99.90
7566;DHT22;3824;48.010;7.832;2023-02-11T00:34:59;-0.90;99.90
7566;DHT22;3824;48.010;7.832;2023-02-11T00:37:26;-0.90;99.90
7566;DHT22;3824;48.010;7.832;2023-02-11T00:39:53;-1.00;99.90
7566;DHT22;3824;48.010;7.832;2023-02-11T00:42:20;-1.00;99.90
7566;DHT22;3824;48.010;7.832;2023-02-11T00:44:47;-1.10;99.90
7566;DHT22;3824;48.010;7.832;2023-02-11T00:47:15;-1.10;99.90
7566;DHT22;3824;48.010;7.832;2023-02-11T00:49:42;-1.10;99.90
7566;DHT22;3824;48.010;7.832;2023-02-11T00:52:09;-1.10;99.90
7566;DHT22;3824;48.010;7.832;2023-02-11T00:54:35;-1.10;99.90
7566;DHT22;3824;48.010;7.832;2023-02-11T00:57:02;-1.10;99.90
7566;DHT22;3824;48.010;7.832;2023-02-11T00:59:29;-1.00;99.90
7566;DHT22;3824;48.010;7.832;2023-02-11T01:01:56;-1.20;99.90
7566;DHT22;3824;48.010;7.832;2023-02-11T01:04:24;-1.20;99.90
7566;DHT22;3824;48.010;7.832;2023-02-11T01:06:52;-1.20;99.90
7566;DHT22;3824;48.010;7.832;2023-02-11T01:09:18;-1.30;99.90
7566;DHT22;3824;48.010;7.832;2023-02-11T01:11:46;-1.30;99.90
7566;DHT22;3824;48.010;7.832;2023-02-11T01:14:13;-1.40;99.90
7566;DHT22;3824;48.010;7.832;2023-02-11T01:16:40;0.20;99.90
7566;DHT22;3824;48.010;7.832;2023-02-11T01:19:06;-1.40;99.90
7566;DHT22;3824;48.010;7.832;2023-02-11T01:21:35;-1.40;99.90
7566;DHT22;3824;48.010;7.832;2023-02-11T01:24:01;-1.40;99.90
7566;DHT22;3824;48.010;7.832;2023-02-11T01:26:28;-1.40;99.90
7566;DHT22;3824;48.010;7.832;2023-02-11T01:28:55;-1.20;99.90
7566;DHT22;3824;48.010;7.832;2023-02-11T01:31:24;-1.50;99.90
7566;DHT22;3824;48.010;7.832;2023-02-11T01:33:51;-1.50;99.90
7566;DHT22;3824;48.010;7.832;2023-02-11T01:36:18;-1.50;99.90
7566;DHT22;3824;48.010;7.832;2023-02-11T01:38:46;-1.40;99.90
7566;DHT22;3824;48.010;7.832;2023-02-11T01:41:14;-1.40;99.90
7566;DHT22;3824;48.010;7.832;2023-02-11T01:43:44;-1.50;99.90
7566;DHT22;3824;48.010;7.832;2023-02-11T01:46:19;-1.50;99.90
7566;DHT22;3824;48.010;7.832;2023-02-11T01:48:49;-1.50;99.90
7566;DHT22;3824;48.010;7.832;2023-02-11T01:51:21;-1.50;99.90
7566;DHT22;3824;48.010;7.832;2023-02-11T01:53:52;-1.50;99.90
7566;DHT22;3824;48.010;7.832;2023-02-11T01:56:52;-1.50;99.90
7566;DHT22;3824;48.010;7.832;2023-02-11T01:59:42;-1.50;99.90
7566;DHT22;3824;48.010;7.832;2023-02-11T02:02:14;-1.50;99.90
7566;DHT22;3824;48.010;7.832;2023-02-11T02:04:46;-1.50;99.90
7566;DHT22;3824;48.010;7.832;2023-02-11T02:07:21;-1.50;99.90
7566;DHT22;3824;48.010;7.832;2023-02-11T02:09:58;-1.40;99.90
7566;DHT22;3824;48.010;7.832;2023-02-11T02:12:26;-1.40;99.90
7566;DHT22;3824;48.010;7.832;2023-02-11T02:15:22;-1.50;99.90
7566;DHT22;3824;48.010;7.832;2023-02-11T02:17:57;-1.50;99.90
7566;DHT22;3824;48.010;7.832;2023-02-11T02:23:48;-1.60;99.90
7566;DHT22;3824;48.010;7.832;2023-02-11T02:29:52;-1.70;99.90
7566;DHT22;3824;48.010;7.832;2023-02-11T02:32:33;-1.70;99.90
7566;DHT22;3824;48.010;7.832;2023-02-11T02:35:09;0.10;99.90
7566;DHT22;3824;48.010;7.832;2023-02-11T02:37:40;-1.70;99.90
7566;DHT22;3824;48.010;7.832;2023-02-11T02:40:11;-1.60;99.90
7566;DHT22;3824;48.010;7.832;2023-02-11T02:42:41;-1.60;99.90
7566;DHT22;3824;48.010;7.832;2023-02-11T02:45:10;-1.60;99.90
7566;DHT22;3824;48.010;7.832;2023-02-11T02:47:38;-1.60;99.90
7566;DHT22;3824;48.010;7.832;2023-02-11T02:50:06;-1.60;99.90
7566;DHT22;3824;48.010;7.832;2023-02-11T02:52:37;-1.60;99.90
7566;DHT22;3824;48.010;7.832;2023-02-11T02:55:28;-1.50;99.90
7566;DHT22;3824;48.010;7.832;2023-02-11T02:58:18;-1.50;99.90
7566;DHT22;3824;48.010;7.832;2023-02-11T03:00:58;-1.40;99.90
7566;DHT22;3824;48.010;7.832;2023-02-11T03:03:33;-1.40;99.90
7566;DHT22;3824;48.010;7.832;2023-02-11T03:06:03;-1.40;99.90
7566;DHT22;3824;48.010;7.832;2023-02-11T03:08:34;0.70;99.90
7566;DHT22;3824;48.010;7.832;2023-02-11T03:11:04;-1.40;99.90
7566;DHT22;3824;48.010;7.832;2023-02-11T03:13:34;-1.40;99.90
7566;DHT22;3824;48.010;7.832;2023-02-11T03:16:06;-1.50;99.90
7566;DHT22;3824;48.010;7.832;2023-02-11T03:18:36;-2.30;99.90
7566;DHT22;3824;48.010;7.832;2023-02-11T03:21:06;-1.50;99.90
7566;DHT22;3824;48.010;7.832;2023-02-11T03:23:37;-1.50;99.90
7566;DHT22;3824;48.010;7.832;2023-02-11T03:26:09;-1.60;99.90
7566;DHT22;3824;48.010;7.832;2023-02-11T03:28:41;-1.60;99.90
7566;DHT22;3824;48.010;7.832;2023-02-11T03:31:13;-1.60;99.90
7566;DHT22;3824;48.010;7.832;2023-02-11T03:33:51;-1.60;99.90
7566;DHT22;3824;48.010;7.832;2023-02-11T03:36:21;-1.70;99.90
7566;DHT22;3824;48.010;7.832;2023-02-11T03:38:53;-1.70;99.90
7566;DHT22;3824;48.010;7.832;2023-02-11T03:41:23;-1.70;99.90
7566;DHT22;3824;48.010;7.832;2023-02-11T03:43:53;-1.70;99.90
7566;DHT22;3824;48.010;7.832;2023-02-11T03:46:24;-1.70;99.90
7566;DHT22;3824;48.010;7.832;2023-02-11T03:48:57;-1.70;99.90
7566;DHT22;3824;48.010;7.832;2023-02-11T03:51:25;-1.70;99.90
7566;DHT22;3824;48.010;7.832;2023-02-11T03:53:55;-1.70;99.90
7566;DHT22;3824;48.010;7.832;2023-02-11T03:56:28;-1.70;99.90
7566;DHT22;3824;48.010;7.832;2023-02-11T03:58:56;-1.70;99.90
7566;DHT22;3824;48.010;7.832;2023-02-11T04:01:23;-1.60;99.90
7566;DHT22;3824;48.010;7.832;2023-02-11T04:03:50;-1.60;99.90
7566;DHT22;3824;48.010;7.832;2023-02-11T04:06:18;-1.70;99.90
7566;DHT22;3824;48.010;7.832;2023-02-11T04:08:45;-1.70;99.90
7566;DHT22;3824;48.010;7.832;2023-02-11T04:11:12;-1.20;99.90
7566;DHT22;3824;48.010;7.832;2023-02-11T04:13:39;-1.70;99.90
7566;DHT22;3824;48.010;7.832;2023-02-11T04:16:06;-1.70;99.90
7566;DHT22;3824;48.010;7.832;2023-02-11T04:18:33;-0.40;99.90
7566;DHT22;3824;48.010;7.832;2023-02-11T04:21:00;-1.70;99.90
7566;DHT22;3824;48.010;7.832;2023-02-11T04:23:28;-1.70;99.90
7566;DHT22;3824;48.010;7.832;2023-02-11T04:25:55;-1.70;99.90
7566;DHT22;3824;48.010;7.832;2023-02-11T04:28:22;-1.70;99.90
7566;DHT22;3824;48.010;7.832;2023-02-11T04:30:49;-1.70;99.90
7566;DHT22;3824;48.010;7.832;2023-02-11T04:33:16;-1.70;99.90
7566;DHT22;3824;48.010;7.832;2023-02-11T04:35:43;-1.70;99.90
7566;DHT22;3824;48.010;7.832;2023-02-11T04:38:10;-1.70;99.90
7566;DHT22;3824;48.010;7.832;2023-02-11T04:40:38;-1.80;99.90
7566;DHT22;3824;48.010;7.832;2023-02-11T04:43:05;-1.80;99.90
7566;DHT22;3824;48.010;7.832;2023-02-11T04:45:32;-1.90;99.90
7566;DHT22;3824;48.010;7.832;2023-02-11T04:48:00;-2.00;99.90
7566;DHT22;3824;48.010;7.832;2023-02-11T04:50:27;-2.10;99.90
7566;DHT22;3824;48.010;7.832;2023-02-11T04:52:54;-2.10;99.90
7566;DHT22;3824;48.010;7.832;2023-02-11T04:55:21;-2.10;99.90
7566;DHT22;3824;48.010;7.832;2023-02-11T04:57:49;-2.10;99.90
7566;DHT22;3824;48.010;7.832;2023-02-11T05:00:16;-2.10;99.90
7566;DHT22;3824;48.010;7.832;2023-02-11T05:02:43;-2.10;99.90
7566;DHT22;3824;48.010;7.832;2023-02-11T05:05:10;-2.10;99.90
7566;DHT22;3824;48.010;7.832;2023-02-11T05:07:36;-2.10;99.90
7566;DHT22;3824;48.010;7.832;2023-02-11T05:10:03;0.00;99.90
7566;DHT22;3824;48.010;7.832;2023-02-11T05:12:30;-2.10;99.90
7566;DHT22;3824;48.010;7.832;2023-02-11T05:14:58;-2.10;99.90
7566;DHT22;3824;48.010;7.832;2023-02-11T05:17:25;-2.10;99.90
7566;DHT22;3824;48.010;7.832;2023-02-11T05:19:52;-2.00;99.90
7566;DHT22;3824;48.010;7.832;2023-02-11T05:22:19;-2.00;99.90
7566;DHT22;3824;48.010;7.832;2023-02-11T05:24:46;-1.50;99.90
7566;DHT22;3824;48.010;7.832;2023-02-11T05:27:13;-2.00;99.90
7566;DHT22;3824;48.010;7.832;2023-02-11T05:29:40;-2.00;99.90
7566;DHT22;3824;48.010;7.832;2023-02-11T05:32:08;-1.90;99.90
7566;DHT22;3824;48.010;7.832;2023-02-11T05:34:35;-1.80;99.90
7566;DHT22;3824;48.010;7.832;2023-02-11T05:37:02;-1.80;99.90
7566;DHT22;3824;48.010;7.832;2023-02-11T05:39:28;-1.70;99.90
7566;DHT22;3824;48.010;7.832;2023-02-11T05:41:55;-1.70;99.90
7566;DHT22;3824;48.010;7.832;2023-02-11T05:44:22;-1.60;99.90
7566;DHT22;3824;48.010;7.832;2023-02-11T05:46:49;-1.60;99.90
7566;DHT22;3824;48.010;7.832;2023-02-11T05:49:17;-1.60;99.90
7566;DHT22;3824;48.010;7.832;2023-02-11T05:51:44;-1.50;99.90
7566;DHT22;3824;48.010;7.832;2023-02-11T05:54:11;-0.80;99.90
7566;DHT22;3824;48.010;7.832;2023-02-11T05:56:38;-1.50;99.90
7566;DHT22;3824;48.010;7.832;2023-02-11T05:59:04;-1.40;99.90
7566;DHT22;3824;48.010;7.832;2023-02-11T06:01:31;-1.50;99.90
7566;DHT22;3824;48.010;7.832;2023-02-11T06:03:58;-1.40;99.90
7566;DHT22;3824;48.010;7.832;2023-02-11T06:06:26;-1.40;99.90
7566;DHT22;3824;48.010;7.832;2023-02-11T06:08:53;-1.40;99.90
7566;DHT22;3824;48.010;7.832;2023-02-11T06:11:20;-1.40;99.90
7566;DHT22;3824;48.010;7.832;2023-02-11T06:13:47;-1.50;99.90
7566;DHT22;3824;48.010;7.832;2023-02-11T06:16:14;-1.50;99.90
7566;DHT22;3824;48.010;7.832;2023-02-11T06:18:41;-1.50;99.90
7566;DHT22;3824;48.010;7.832;2023-02-11T06:21:09;-1.50;99.90
7566;DHT22;3824;48.010;7.832;2023-02-11T06:23:38;-1.50;99.90
7566;DHT22;3824;48.010;7.832;2023-02-11T06:26:06;-1.50;99.90
7566;DHT22;3824;48.010;7.832;2023-02-11T06:28:33;-1.60;99.90
7566;DHT22;3824;48.010;7.832;2023-02-11T06:31:05;0.20;99.90
7566;DHT22;3824;48.010;7.832;2023-02-11T06:33:32;-1.60;99.90
7566;DHT22;3824;48.010;7.832;2023-02-11T06:35:59;-1.60;99.90
7566;DHT22;3824;48.010;7.832;2023-02-11T06:38:26;-1.60;99.90
7566;DHT22;3824;48.010;7.832;2023-02-11T06:40:54;-1.20;99.90
7566;DHT22;3824;48.010;7.832;2023-02-11T06:43:21;-1.60;99.90
7566;DHT22;3824;48.010;7.832;2023-02-11T06:45:52;-1.60;99.90
7566;DHT22;3824;48.010;7.832;2023-02-11T06:48:19;0.70;99.90
7566;DHT22;3824;48.010;7.832;2023-02-11T06:50:46;-1.60;99.90
7566;DHT22;3824;48.010;7.832;2023-02-11T06:53:13;-1.60;99.90
7566;DHT22;3824;48.010;7.832;2023-02-11T06:55:40;-1.50;99.90
7566;DHT22;3824;48.010;7.832;2023-02-11T06:58:08;-1.50;99.90
7566;DHT22;3824;48.010;7.832;2023-02-11T07:00:35;-1.50;99.90
7566;DHT22;3824;48.010;7.832;2023-02-11T07:03:02;-1.40;99.90
7566;DHT22;3824;48.010;7.832;2023-02-11T07:05:29;-1.40;99.90
7566;DHT22;3824;48.010;7.832;2023-02-11T07:07:56;-1.40;99.90
7566;DHT22;3824;48.010;7.832;2023-02-11T07:10:23;-1.40;99.90
7566;DHT22;3824;48.010;7.832;2023-02-11T07:12:49;-1.20;99.90
7566;DHT22;3824;48.010;7.832;2023-02-11T07:15:18;-1.30;99.90
7566;DHT22;3824;48.010;7.832;2023-02-11T07:17:45;-1.30;99.90
7566;DHT22;3824;48.010;7.832;2023-02-11T07:20:12;-1.20;99.90
7566;DHT22;3824;48.010;7.832;2023-02-11T07:22:40;-1.20;99.90
7566;DHT22;3824;48.010;7.832;2023-02-11T07:25:07;-1.20;99.90
7566;DHT22;3824;48.010;7.832;2023-02-11T07:27:33;-1.20;99.90
7566;DHT22;3824;48.010;7.832;2023-02-11T07:30:00;0.80;99.90
7566;DHT22;3824;48.010;7.832;2023-02-11T07:32:28;-0.80;99.90
7566;DHT22;3824;48.010;7.832;2023-02-11T07:34:55;-1.40;99.90
7566;DHT22;3824;48.010;7.832;2023-02-11T07:37:22;-0.70;99.90
7566;DHT22;3824;48.010;7.832;2023-02-11T07:39:49;-1.40;99.90
7566;DHT22;3824;48.010;7.832;2023-02-11T07:42:16;-1.40;99.90
7566;DHT22;3824;48.010;7.832;2023-02-11T07:44:42;-1.40;99.90
7566;DHT22;3824;48.010;7.832;2023-02-11T07:47:09;-0.20;99.90
7566;DHT22;3824;48.010;7.832;2023-02-11T07:49:37;-1.40;99.90
7566;DHT22;3824;48.010;7.832;2023-02-11T07:52:04;-1.30;99.90
7566;DHT22;3824;48.010;7.832;2023-02-11T07:54:31;-1.20;99.90
7566;DHT22;3824;48.010;7.832;2023-02-11T07:56:58;-1.00;99.90
7566;DHT22;3824;48.010;7.832;2023-02-11T07:59:25;-0.80;99.90
7566;DHT22;3824;48.010;7.832;2023-02-11T08:01:52;-0.60;99.90
7566;DHT22;3824;48.010;7.832;2023-02-11T08:04:18;-0.40;99.90
7566;DHT22;3824;48.010;7.832;2023-02-11T08:06:47;-0.20;99.90
7566;DHT22;3824;48.010;7.832;2023-02-11T08:09:14;0.00;99.90
7566;DHT22;3824;48.010;7.832;2023-02-11T08:11:42;0.30;99.90
7566;DHT22;3824;48.010;7.832;2023-02-11T08:14:10;0.30;99.90
7566;DHT22;3824;48.010;7.832;2023-02-11T08:16:37;0.40;99.90
7566;DHT22;3824;48.010;7.832;2023-02-11T08:19:05;0.60;99.90
7566;DHT22;3824;48.010;7.832;2023-02-11T08:21:32;0.60;99.90
7566;DHT22;3824;48.010;7.832;2023-02-11T08:24:01;2.50;99.90
7566;DHT22;3824;48.010;7.832;2023-02-11T08:26:30;0.80;99.90
7566;DHT22;3824;48.010;7.832;2023-02-11T08:28:59;1.00;99.90
7566;DHT22;3824;48.010;7.832;2023-02-11T08:31:28;1.00;99.90
7566;DHT22;3824;48.010;7.832;2023-02-11T08:33:55;1.20;99.90
7566;DHT22;3824;48.010;7.832;2023-02-11T08:36:24;2.00;99.90
7566;DHT22;3824;48.010;7.832;2023-02-11T08:38:53;2.90;99.90
7566;DHT22;3824;48.010;7.832;2023-02-11T08:41:21;3.60;99.90
7566;DHT22;3824;48.010;7.832;2023-02-11T08:43:48;1.70;99.90
7566;DHT22;3824;48.010;7.832;2023-02-11T08:46:18;1.90;99.90
7566;DHT22;3824;48.010;7.832;2023-02-11T08:48:46;2.10;99.90
7566;DHT22;3824;48.010;7.832;2023-02-11T08:51:15;2.40;99.90
7566;DHT22;3824;48.010;7.832;2023-02-11T08:53:42;3.30;99.90
7566;DHT22;3824;48.010;7.832;2023-02-11T08:56:10;2.70;99.90
7566;DHT22;3824;48.010;7.832;2023-02-11T08:58:39;3.80;99.90
7566;DHT22;3824;48.010;7.832;2023-02-11T09:01:08;3.40;99.90
7566;DHT22;3824;48.010;7.832;2023-02-11T09:03:35;3.00;99.90
7566;DHT22;3824;48.010;7.832;2023-02-11T09:06:04;4.90;99.90
7566;DHT22;3824;48.010;7.832;2023-02-11T09:08:33;3.00;99.90
7566;DHT22;3824;48.010;7.832;2023-02-11T09:11:00;4.60;99.90
7566;DHT22;3824;48.010;7.832;2023-02-11T09:13:28;4.00;99.90
7566;DHT22;3824;48.010;7.832;2023-02-11T09:15:57;3.00;99.90
7566;DHT22;3824;48.010;7.832;2023-02-11T09:18:24;3.90;99.90
7566;DHT22;3824;48.010;7.832;2023-02-11T09:20:50;3.10;99.90
7566;DHT22;3824;48.010;7.832;2023-02-11T09:23:17;4.70;99.90
7566;DHT22;3824;48.010;7.832;2023-02-11T09:25:44;3.20;99.90
7566;DHT22;3824;48.010;7.832;2023-02-11T09:28:11;3.20;99.90
7566;DHT22;3824;48.010;7.832;2023-02-11T09:30:38;3.10;99.90
7566;DHT22;3824;48.010;7.832;2023-02-11T09:33:06;3.10;99.90
7566;DHT22;3824;48.010;7.832;2023-02-11T09:35:33;3.10;99.90
7566;DHT22;3824;48.010;7.832;2023-02-11T09:38:00;3.50;99.90
7566;DHT22;3824;48.010;7.832;2023-02-11T09:40:27;3.70;99.90
7566;DHT22;3824;48.010;7.832;2023-02-11T09:43:00;3.50;99.90
7566;DHT22;3824;48.010;7.832;2023-02-11T09:45:30;4.60;99.90
7566;DHT22;3824;48.010;7.832;2023-02-11T09:47:59;5.10;99.90
7566;DHT22;3824;48.010;7.832;2023-02-11T09:50:32;3.20;99.90
7566;DHT22;3824;48.010;7.832;2023-02-11T09:53:01;3.30;99.90
7566;DHT22;3824;48.010;7.832;2023-02-11T09:55:31;4.70;99.90
7566;DHT22;3824;48.010;7.832;2023-02-11T09:58:03;3.30;99.90
7566;DHT22;3824;48.010;7.832;2023-02-11T10:00:36;3.40;99.90
7566;DHT22;3824;48.010;7.832;2023-02-11T10:03:36;5.60;99.90
7566;DHT22;3824;48.010;7.832;2023-02-11T10:06:20;4.50;99.90
7566;DHT22;3824;48.010;7.832;2023-02-11T10:08:58;3.60;99.90
7566;DHT22;3824;48.010;7.832;2023-02-11T10:11:33;3.70;99.90
7566;DHT22;3824;48.010;7.832;2023-02-11T10:14:06;3.80;99.90
7566;DHT22;3824;48.010;7.832;2023-02-11T10:16:47;3.90;99.90
7566;DHT22;3824;48.010;7.832;2023-02-11T10:19:40;3.90;99.90
7566;DHT22;3824;48.010;7.832;2023-02-11T10:22:17;4.70;99.90
7566;DHT22;3824;48.010;7.832;2023-02-11T10:24:50;3.90;99.90
7566;DHT22;3824;48.010;7.832;2023-02-11T10:27:20;5.30;99.90
7566;DHT22;3824;48.010;7.832;2023-02-11T10:29:50;5.60;99.90
7566;DHT22;3824;48.010;7.832;2023-02-11T10:32:28;4.00;99.90
7566;DHT22;3824;48.010;7.832;2023-02-11T10:35:01;4.10;99.90
7566;DHT22;3824;48.010;7.832;2023-02-11T10:37:29;4.20;99.90
7566;DHT22;3824;48.010;7.832;2023-02-11T10:39:56;4.30;99.90
7566;DHT22;3824;48.010;7.832;2023-02-11T10:42:24;4.30;99.90
7566;DHT22;3824;48.010;7.832;2023-02-11T10:44:56;4.40;99.90
7566;DHT22;3824;48.010;7.832;2023-02-11T10:47:27;4.40;99.90
7566;DHT22;3824;48.010;7.832;2023-02-11T10:49:57;4.40;99.90
7566;DHT22;3824;48.010;7.832;2023-02-11T10:52:30;5.50;99.90
7566;DHT22;3824;48.010;7.832;2023-02-11T10:55:00;4.60;99.90
7566;DHT22;3824;48.010;7.832;2023-02-11T10:57:32;6.10;99.90
7566;DHT22;3824;48.010;7.832;2023-02-11T11:00:18;4.80;99.90
7566;DHT22;3824;48.010;7.832;2023-02-11T11:02:54;4.80;99.90
7566;DHT22;3824;48.010;7.832;2023-02-11T11:05:28;5.00;99.90
7566;DHT22;3824;48.010;7.832;2023-02-11T11:07:58;5.00;99.90
7566;DHT22;3824;48.010;7.832;2023-02-11T11:10:28;5.10;99.90
7566;DHT22;3824;48.010;7.832;2023-02-11T11:12:55;5.20;99.90
7566;DHT22;3824;48.010;7.832;2023-02-11T11:15:23;6.40;99.90
7566;DHT22;3824;48.010;7.832;2023-02-11T11:20:33;5.50;99.90
7566;DHT22;3824;48.010;7.832;2023-02-11T11:23:14;5.60;99.90
7566;DHT22;3824;48.010;7.832;2023-02-11T11:25:43;7.40;99.90
7566;DHT22;3824;48.010;7.832;2023-02-11T11:28:23;5.70;99.90
7566;DHT22;3824;48.010;7.832;2023-02-11T11:30:51;5.70;99.90
7566;DHT22;3824;48.010;7.832;2023-02-11T11:33:20;5.90;99.90
7566;DHT22;3824;48.010;7.832;2023-02-11T11:35:58;5.80;99.90
7566;DHT22;3824;48.010;7.832;2023-02-11T11:38:27;5.90;99.90
7566;DHT22;3824;48.010;7.832;2023-02-11T11:41:21;5.90;99.90
7566;DHT22;3824;48.010;7.832;2023-02-11T11:43:57;5.20;99.90
7566;DHT22;3824;48.010;7.832;2023-02-11T11:46:26;6.10;99.90
7566;DHT22;3824;48.010;7.832;2023-02-11T11:48:58;6.10;99.90
7566;DHT22;3824;48.010;7.832;2023-02-11T11:51:27;6.10;99.90
7566;DHT22;3824;48.010;7.832;2023-02-11T11:53:59;6.20;99.90
7566;DHT22;3824;48.010;7.832;2023-02-11T11:56:29;6.70;99.90
7566;DHT22;3824;48.010;7.832;2023-02-11T11:58:59;6.30;99.90
7566;DHT22;3824;48.010;7.832;2023-02-11T12:01:36;6.40;99.90
7566;DHT22;3824;48.010;7.832;2023-02-11T12:04:51;6.40;99.90
7566;DHT22;3824;48.010;7.832;2023-02-11T12:07:35;6.50;99.90
7566;DHT22;3824;48.010;7.832;2023-02-11T12:10:34;6.50;99.90
7566;DHT22;3824;48.010;7.832;2023-02-11T12:13:15;6.50;99.90
7566;DHT22;3824;48.010;7.832;2023-02-11T12:15:54;6.60;99.90
7566;DHT22;3824;48.010;7.832;2023-02-11T12:19:00;6.70;99.90
7566;DHT22;3824;48.010;7.832;2023-02-11T12:21:39;6.70;99.90
7566;DHT22;3824;48.010;7.832;2023-02-11T12:24:26;6.90;99.90
7566;DHT22;3824;48.010;7.832;2023-02-11T12:27:01;6.90;99.90
7566;DHT22;3824;48.010;7.832;2023-02-11T12:29:39;7.00;99.90
7566;DHT22;3824;48.010;7.832;2023-02-11T12:32:14;7.10;99.90
7566;DHT22;3824;48.010;7.832;2023-02-11T12:38:02;7.20;99.90
7566;DHT22;3824;48.010;7.832;2023-02-11T12:40:39;7.30;99.90
7566;DHT22;3824;48.010;7.832;2023-02-11T12:43:19;7.40;99.90
7566;DHT22;3824;48.010;7.832;2023-02-11T12:45:59;7.50;99.90
7566;DHT22;3824;48.010;7.832;2023-02-11T12:48:43;7.50;99.90
7566;DHT22;3824;48.010;7.832;2023-02-11T12:51:20;7.60;99.90
7566;DHT22;3824;48.010;7.832;2023-02-11T12:54:18;7.60;99.90
7566;DHT22;3824;48.010;7.832;2023-02-11T12:56:51;7.60;99.90
7566;DHT22;3824;48.010;7.832;2023-02-11T12:59:30;7.50;99.90
7566;DHT22;3824;48.010;7.832;2023-02-11T13:02:02;7.50;99.90
7566;DHT22;3824;48.010;7.832;2023-02-11T13:04:35;7.40;99.90
7566;DHT22;3824;48.010;7.832;2023-02-11T13:07:09;7.40;99.90
7566;DHT22;3824;48.010;7.832;2023-02-11T13:09:41;7.40;99.90
7566;DHT22;3824;48.010;7.832;2023-02-11T13:12:11;7.40;99.90
7566;DHT22;3824;48.010;7.832;2023-02-11T13:15:13;7.50;99.90
7566;DHT22;3824;48.010;7.832;2023-02-11T13:17:45;7.50;99.90
7566;DHT22;3824;48.010;7.832;2023-02-11T13:20:25;7.60;99.90
7566;DHT22;3824;48.010;7.832;2023-02-11T13:22:58;7.60;99.90
7566;DHT22;3824;48.010;7.832;2023-02-11T13:25:32;7.70;99.90
7566;DHT22;3824;48.010;7.832;2023-02-11T13:28:09;7.70;99.90
7566;DHT22;3824;48.010;7.832;2023-02-11T13:30:41;7.80;99.90
7566;DHT22;3824;48.010;7.832;2023-02-11T13:33:20;7.80;99.90
7566;DHT22;3824;48.010;7.832;2023-02-11T13:36:17;7.80;99.90
7566;DHT22;3824;48.010;7.832;2023-02-11T13:38:54;7.90;99.90
7566;DHT22;3824;48.010;7.832;2023-02-11T13:41:25;7.90;99.90
7566;DHT22;3824;48.010;7.832;2023-02-11T13:46:54;8.00;99.90
7566;DHT22;3824;48.010;7.832;2023-02-11T13:49:25;8.10;99.90
7566;DHT22;3824;48.010;7.832;2023-02-11T13:51:53;8.20;99.90
7566;DHT22;3824;48.010;7.832;2023-02-11T13:54:30;8.20;99.90
7566;DHT22;3824;48.010;7.832;2023-02-11T13:57:21;8.20;99.90
7566;DHT22;3824;48.010;7.832;2023-02-11T13:59:52;8.20;99.90
7566;DHT22;3824;48.010;7.832;2023-02-11T14:02:27;8.20;99.90
7566;DHT22;3824;48.010;7.832;2023-02-11T14:05:21;8.10;99.90
7566;DHT22;3824;48.010;7.832;2023-02-11T14:08:18;8.20;99.90
7566;DHT22;3824;48.010;7.832;2023-02-11T14:11:05;8.10;99.90
7566;DHT22;3824;48.010;7.832;2023-02-11T14:14:02;8.20;99.90
7566;DHT22;3824;48.010;7.832;2023-02-11T14:16:29;8.30;99.90
7566;DHT22;3824;48.010;7.832;2023-02-11T14:19:01;8.30;99.90
7566;DHT22;3824;48.010;7.832;2023-02-11T14:21:34;8.30;99.90
7566;DHT22;3824;48.010;7.832;2023-02-11T14:24:43;8.30;99.90
7566;DHT22;3824;48.010;7.832;2023-02-11T14:27:16;8.40;99.90
7566;DHT22;3824;48.010;7.832;2023-02-11T14:29:53;8.40;99.90
7566;DHT22;3824;48.010;7.832;2023-02-11T14:32:34;8.40;99.90
7566;DHT22;3824;48.010;7.832;2023-02-11T14:35:10;8.30;99.90
7566;DHT22;3824;48.010;7.832;2023-02-11T14:37:44;8.30;99.90
7566;DHT22;3824;48.010;7.832;2023-02-11T14:40:24;8.30;99.90
7566;DHT22;3824;48.010;7.832;2023-02-11T14:42:53;8.30;99.90
7566;DHT22;3824;48.010;7.832;2023-02-11T14:45:24;8.30;99.90
7566;DHT22;3824;48.010;7.832;2023-02-11T14:47:55;8.30;99.90
7566;DHT22;3824;48.010;7.832;2023-02-11T14:50:26;8.30;99.90
7566;DHT22;3824;48.010;7.832;2023-02-11T14:52:55;8.50;99.90
7566;DHT22;3824;48.010;7.832;2023-02-11T14:55:29;8.30;99.90
7566;DHT22;3824;48.010;7.832;2023-02-11T14:58:05;8.30;99.90
7566;DHT22;3824;48.010;7.832;2023-02-11T15:00:31;8.30;99.90
7566;DHT22;3824;48.010;7.832;2023-02-11T15:02:58;8.40;99.90
7566;DHT22;3824;48.010;7.832;2023-02-11T15:05:27;8.40;99.90
7566;DHT22;3824;48.010;7.832;2023-02-11T15:07:57;8.40;99.90
7566;DHT22;3824;48.010;7.832;2023-02-11T15:10:29;8.40;99.90
7566;DHT22;3824;48.010;7.832;2023-02-11T15:12:57;8.50;99.90
7566;DHT22;3824;48.010;7.832;2023-02-11T15:15:25;8.50;99.90
7566;DHT22;3824;48.010;7.832;2023-02-11T15:17:53;8.70;99.90
7566;DHT22;3824;48.010;7.832;2023-02-11T15:20:24;8.70;99.90
7566;DHT22;3824;48.010;7.832;2023-02-11T15:22:56;8.50;99.90
7566;DHT22;3824;48.010;7.832;2023-02-11T15:25:23;8.50;99.90
7566;DHT22;3824;48.010;7.832;2023-02-11T15:27:54;8.50;99.90
7566;DHT22;3824;48.010;7.832;2023-02-11T15:30:28;8.40;99.90
7566;DHT22;3824;48.010;7.832;2023-02-11T15:32:57;8.40;99.90
7566;DHT22;3824;48.010;7.832;2023-02-11T15:35:26;8.40;99.90
7566;DHT22;3824;48.010;7.832;2023-02-11T15:37:55;8.30;99.90
7566;DHT22;3824;48.010;7.832;2023-02-11T15:40:24;8.30;99.90
7566;DHT22;3824;48.010;7.832;2023-02-11T15:42:54;8.20;99.90
7566;DHT22;3824;48.010;7.832;2023-02-11T15:45:22;8.10;99.90
7566;DHT22;3824;48.010;7.832;2023-02-11T15:47:55;8.10;99.90
7566;DHT22;3824;48.010;7.832;2023-02-11T15:50:24;8.10;99.90
7566;DHT22;3824;48.010;7.832;2023-02-11T15:52:52;8.00;99.90
7566;DHT22;3824;48.010;7.832;2023-02-11T15:55:22;8.00;99.90
7566;DHT22;3824;48.010;7.832;2023-02-11T15:57:52;7.90;99.90
7566;DHT22;3824;48.010;7.832;2023-02-11T16:00:22;8.70;99.90
7566;DHT22;3824;48.010;7.832;2023-02-11T16:02:50;7.80;99.90
7566;DHT22;3824;48.010;7.832;2023-02-11T16:05:26;7.80;99.90
7566;DHT22;3824;48.010;7.832;2023-02-11T16:07:53;7.70;99.90
7566;DHT22;3824;48.010;7.832;2023-02-11T16:10:25;7.70;99.90
7566;DHT22;3824;48.010;7.832;2023-02-11T16:13:03;7.60;99.90
7566;DHT22;3824;48.010;7.832;2023-02-11T16:15:52;7.60;99.90
7566;DHT22;3824;48.010;7.832;2023-02-11T16:18:42;7.50;99.90
7566;DHT22;3824;48.010;7.832;2023-02-11T16:21:13;7.50;99.90
7566;DHT22;3824;48.010;7.832;2023-02-11T16:23:47;7.40;99.90
7566;DHT22;3824;48.010;7.832;2023-02-11T16:26:23;7.30;99.90
7566;DHT22;3824;48.010;7.832;2023-02-11T16:28:51;7.20;99.90
7566;DHT22;3824;48.010;7.832;2023-02-11T16:31:18;7.20;99.90
7566;DHT22;3824;48.010;7.832;2023-02-11T16:33:45;7.10;99.90
7566;DHT22;3824;48.010;7.832;2023-02-11T16:36:13;7.00;99.90
7566;DHT22;3824;48.010;7.832;2023-02-11T16:38:41;6.90;99.90
7566;DHT22;3824;48.010;7.832;2023-02-11T16:41:08;6.80;99.90
7566;DHT22;3824;48.010;7.832;2023-02-11T16:43:37;6.70;99.90
7566;DHT22;3824;48.010;7.832;2023-02-11T16:46:04;6.60;99.90
7566;DHT22;3824;48.010;7.832;2023-02-11T16:48:31;6.50;99.90
7566;DHT22;3824;48.010;7.832;2023-02-11T16:50:59;6.40;99.90